createdAt,value
2023-04-19T00:01:58.553Z,94.90
2023-04-19T00:04:48.001Z,94.70
2023-04-19T00:07:35.438Z,94.60
2023-04-19T00:10:23.696Z,94.70
2023-04-19T00:13:12.548Z,94.90
2023-04-19T00:16:00.825Z,95.10
2023-04-19T00:18:48.545Z,95.00
2023-04-19T00:21:36.652Z,95.50
2023-04-19T00:24:23.859Z,95.20
2023-04-19T00:27:11.934Z,95.40
2023-04-19T00:30:01.938Z,95.30
2023-04-19T00:32:52.264Z,95.40
2023-04-19T00:35:41.742Z,95.60
2023-04-19T00:38:29.833Z,95.40
2023-04-19T00:41:17.029Z,95.10
2023-04-19T00:44:05.363Z,95.50
2023-04-19T00:46:56.012Z,95.80
2023-04-19T00:49:44.393Z,95.50
2023-04-19T00:52:34.047Z,95.40
2023-04-19T00:55:22.706Z,95.30
2023-04-19T00:58:09.981Z,95.50
2023-04-19T01:00:58.044Z,95.40
2023-04-19T01:03:47.635Z,95.10
2023-04-19T01:06:36.268Z,95.30
2023-04-19T01:09:23.485Z,95.20
2023-04-19T01:12:11.567Z,95.00
2023-04-19T01:14:58.783Z,95.20
2023-04-19T01:17:47.173Z,95.50
2023-04-19T01:20:36.448Z,95.40
2023-04-19T01:23:26.132Z,95.90
2023-04-19T01:26:13.974Z,95.50
2023-04-19T01:29:01.352Z,95.90
2023-04-19T01:31:54.157Z,95.70
2023-04-19T01:34:42.858Z,95.90
2023-04-19T01:37:31.058Z,96.10
2023-04-19T01:40:20.508Z,96.20
2023-04-19T01:43:08.992Z,95.50
2023-04-19T01:45:56.124Z,95.70
2023-04-19T01:48:44.858Z,96.00
2023-04-19T01:51:32.154Z,96.00
2023-04-19T01:54:22.155Z,96.10
2023-04-19T01:57:11.885Z,95.70
2023-04-19T01:59:59.749Z,95.70
2023-04-19T02:02:47.285Z,96.30
2023-04-19T02:05:36.529Z,95.90
2023-04-19T02:08:23.660Z,96.90
2023-04-19T02:11:14.549Z,97.10
2023-04-19T02:14:03.048Z,97.70
2023-04-19T02:16:51.226Z,98.30
2023-04-19T02:19:38.780Z,98.60
2023-04-19T02:22:26.111Z,100.00
2023-04-19T02:25:14.336Z,100.00
2023-04-19T02:28:02.167Z,100.00
2023-04-19T02:30:50.981Z,100.00
2023-04-19T02:33:39.157Z,100.00
2023-04-19T02:36:26.825Z,100.00
2023-04-19T02:39:16.824Z,100.00
2023-04-19T02:42:04.881Z,100.00
2023-04-19T02:44:52.636Z,100.00
2023-04-19T02:47:47.144Z,100.00
2023-04-19T02:50:38.567Z,100.00
2023-04-19T02:53:27.056Z,100.00
2023-04-19T02:56:14.751Z,100.00
2023-04-19T02:59:02.225Z,100.00
2023-04-19T03:01:51.412Z,100.00
2023-04-19T03:04:40.373Z,100.00
2023-04-19T03:07:28.461Z,100.00
2023-04-19T03:10:15.712Z,100.00
2023-04-19T03:13:03.387Z,100.00
2023-04-19T03:15:51.263Z,100.00
2023-04-19T03:18:42.829Z,100.00
2023-04-19T03:21:32.584Z,100.00
2023-04-19T03:24:27.301Z,100.00
2023-04-19T03:27:14.903Z,100.00
2023-04-19T03:30:05.164Z,100.00
2023-04-19T03:32:52.856Z,100.00
2023-04-19T03:35:41.805Z,100.00
2023-04-19T03:38:33.616Z,100.00
2023-04-19T03:41:23.758Z,100.00
2023-04-19T03:44:23.130Z,100.00
2023-04-19T03:47:10.821Z,100.00
2023-04-19T03:50:03.614Z,100.00
2023-04-19T03:52:55.090Z,100.00
2023-04-19T03:55:44.140Z,100.00
2023-04-19T03:58:31.823Z,100.00
2023-04-19T04:01:24.377Z,100.00
2023-04-19T04:04:14.080Z,100.00
2023-04-19T04:07:01.668Z,100.00
2023-04-19T04:09:49.499Z,100.00
2023-04-19T04:12:38.040Z,100.00
2023-04-19T04:15:27.971Z,100.00
2023-04-19T04:18:16.996Z,100.00
2023-04-19T04:21:05.509Z,100.00
2023-04-19T04:23:55.192Z,100.00
2023-04-19T04:26:52.536Z,100.00
2023-04-19T04:29:45.819Z,100.00
2023-04-19T04:32:36.333Z,100.00
2023-04-19T04:35:25.459Z,100.00
2023-04-19T04:38:24.751Z,100.00
2023-04-19T04:41:13.325Z,100.00
2023-04-19T04:46:53.233Z,100.00
2023-04-19T04:49:46.224Z,100.00
2023-04-19T04:52:33.884Z,100.00
2023-04-19T04:55:38.509Z,100.00
2023-04-19T04:58:26.836Z,100.00
2023-04-19T05:01:20.469Z,100.00
2023-04-19T05:04:10.128Z,100.00
2023-04-19T05:06:57.854Z,100.00
2023-04-19T05:09:47.545Z,100.00
2023-04-19T05:12:40.199Z,100.00
2023-04-19T05:15:27.437Z,100.00
2023-04-19T05:18:16.117Z,100.00
2023-04-19T05:21:04.969Z,100.00
2023-04-19T05:23:54.091Z,100.00
2023-04-19T05:26:41.860Z,100.00
2023-04-19T05:29:31.879Z,100.00
2023-04-19T05:32:19.146Z,100.00
2023-04-19T05:35:13.186Z,100.00
2023-04-19T05:38:02.851Z,100.00
2023-04-19T05:40:51.220Z,100.00
2023-04-19T05:43:39.936Z,100.00
2023-04-19T05:46:28.567Z,100.00
2023-04-19T05:49:17.045Z,100.00
2023-04-19T05:52:23.760Z,100.00
2023-04-19T05:55:16.269Z,100.00
2023-04-19T05:58:06.109Z,100.00
2023-04-19T06:00:53.500Z,100.00
2023-04-19T06:03:43.039Z,100.00
2023-04-19T06:06:31.628Z,100.00
2023-04-19T06:09:19.056Z,100.00
2023-04-19T06:12:08.269Z,100.00
2023-04-19T06:14:56.789Z,100.00
2023-04-19T06:17:44.515Z,100.00
2023-04-19T06:20:32.215Z,100.00
2023-04-19T06:23:19.761Z,100.00
2023-04-19T06:26:07.056Z,100.00
2023-04-19T06:28:55.844Z,100.00
2023-04-19T06:31:44.068Z,100.00
2023-04-19T06:34:31.505Z,100.00
2023-04-19T06:37:18.764Z,100.00
2023-04-19T06:40:08.461Z,100.00
2023-04-19T06:42:56.639Z,100.00
2023-04-19T06:45:45.357Z,100.00
2023-04-19T06:48:33.965Z,100.00
2023-04-19T06:51:21.829Z,100.00
2023-04-19T06:54:09.613Z,100.00
2023-04-19T06:56:57.042Z,100.00
2023-04-19T06:59:45.388Z,100.00
2023-04-19T07:02:34.146Z,100.00
2023-04-19T07:05:21.510Z,100.00
2023-04-19T07:08:08.924Z,100.00
2023-04-19T07:10:56.780Z,100.00
2023-04-19T07:13:43.919Z,100.00
2023-04-19T07:16:31.817Z,100.00
2023-04-19T07:19:22.437Z,100.00
2023-04-19T07:22:10.098Z,100.00
2023-04-19T07:24:57.281Z,100.00
2023-04-19T07:27:45.397Z,100.00
2023-04-19T07:30:32.578Z,100.00
2023-04-19T07:33:20.731Z,100.00
2023-04-19T07:36:09.674Z,100.00
2023-04-19T07:38:58.034Z,100.00
2023-04-19T07:41:45.668Z,100.00
2023-04-19T07:44:33.372Z,100.00
2023-04-19T07:47:20.584Z,100.00
2023-04-19T07:50:09.992Z,100.00
2023-04-19T07:52:58.739Z,100.00
2023-04-19T07:55:46.540Z,100.00
2023-04-19T07:58:33.795Z,100.00
2023-04-19T08:01:22.380Z,100.00
2023-04-19T08:04:09.818Z,100.00
2023-04-19T08:06:57.587Z,100.00
2023-04-19T08:09:46.220Z,100.00
2023-04-19T08:12:39.305Z,100.00
2023-04-19T08:18:20.891Z,100.00
2023-04-19T08:21:08.479Z,98.60
2023-04-19T08:23:56.290Z,98.20
2023-04-19T08:26:53.965Z,98.10
2023-04-19T08:29:41.334Z,98.80
2023-04-19T08:32:29.471Z,97.70
2023-04-19T08:35:16.802Z,96.60
2023-04-19T08:38:05.365Z,96.40
2023-04-19T08:40:57.590Z,97.60
2023-04-19T08:43:50.844Z,95.20
2023-04-19T08:46:38.647Z,95.40
2023-04-19T08:49:27.506Z,95.00
2023-04-19T08:52:16.238Z,95.10
2023-04-19T08:55:04.561Z,93.20
2023-04-19T08:57:52.271Z,93.50
2023-04-19T09:00:41.385Z,93.50
2023-04-19T09:03:29.251Z,93.00
2023-04-19T09:06:17.745Z,92.50
2023-04-19T09:12:17.608Z,91.60
2023-04-19T09:15:08.756Z,93.00
2023-04-19T09:18:06.964Z,91.40
2023-04-19T09:20:57.546Z,91.30
2023-04-19T09:23:48.682Z,90.00
2023-04-19T09:26:36.274Z,91.20
2023-04-19T09:29:24.406Z,90.20
2023-04-19T09:32:12.727Z,88.70
2023-04-19T09:35:01.617Z,87.90
2023-04-19T09:38:06.344Z,87.70
2023-04-19T09:41:06.814Z,87.20
2023-04-19T09:46:46.397Z,87.90
2023-04-19T09:49:48.059Z,88.40
2023-04-19T09:52:38.104Z,88.90
2023-04-19T09:55:29.025Z,88.00
2023-04-19T09:58:19.589Z,88.10
2023-04-19T10:01:15.650Z,87.40
2023-04-19T10:04:23.916Z,87.20
2023-04-19T10:10:19.499Z,84.90
2023-04-19T10:13:19.743Z,86.00
2023-04-19T10:16:18.966Z,83.70
2023-04-19T10:19:11.551Z,84.10
2023-04-19T10:21:59.083Z,82.90
2023-04-19T10:25:13.469Z,81.40
2023-04-19T10:28:01.189Z,83.20
2023-04-19T10:30:56.305Z,84.40
2023-04-19T10:33:43.492Z,83.90
2023-04-19T10:36:32.529Z,83.60
2023-04-19T10:39:41.683Z,81.90
2023-04-19T10:43:02.221Z,81.70
2023-04-19T10:45:51.136Z,82.00
2023-04-19T10:48:54.162Z,81.90
2023-04-19T10:51:47.480Z,82.60
2023-04-19T10:54:38.013Z,80.50
2023-04-19T10:57:25.365Z,80.70
2023-04-19T11:00:19.776Z,82.60
2023-04-19T11:03:40.359Z,82.90
2023-04-19T11:06:30.005Z,83.10
2023-04-19T11:09:22.432Z,84.50
2023-04-19T11:12:12.526Z,84.90
2023-04-19T11:15:00.885Z,84.30
2023-04-19T11:18:00.989Z,84.50
2023-04-19T11:20:58.225Z,85.20
2023-04-19T11:23:49.317Z,85.40
2023-04-19T11:26:36.498Z,87.40
2023-04-19T11:29:24.229Z,88.10
2023-04-19T11:32:11.436Z,87.50
2023-04-19T11:35:05.620Z,87.60
2023-04-19T11:37:53.749Z,87.30
2023-04-19T11:40:43.470Z,89.70
2023-04-19T11:43:33.938Z,90.40
2023-04-19T11:46:21.955Z,91.70
2023-04-19T11:49:09.235Z,91.10
2023-04-19T11:51:59.052Z,92.60
2023-04-19T11:54:46.856Z,91.70
2023-04-19T11:57:36.460Z,91.60
2023-04-19T12:00:28.452Z,91.20
2023-04-19T12:03:16.808Z,91.80
2023-04-19T12:06:04.603Z,92.00
2023-04-19T12:08:53.616Z,92.10
2023-04-19T12:11:45.836Z,93.70
2023-04-19T12:14:34.481Z,96.00
2023-04-19T12:17:22.618Z,98.50
2023-04-19T12:20:11.700Z,100.00
2023-04-19T12:22:58.983Z,99.60
2023-04-19T12:25:49.066Z,100.00
2023-04-19T12:28:36.169Z,100.00
2023-04-19T12:31:25.979Z,97.90
2023-04-19T12:34:14.068Z,97.70
2023-04-19T12:37:01.347Z,98.20
2023-04-19T12:39:49.365Z,100.00
2023-04-19T12:42:36.547Z,100.00
2023-04-19T12:45:24.118Z,99.40
2023-04-19T12:48:12.853Z,99.30
2023-04-19T12:51:01.154Z,100.00
2023-04-19T12:53:49.419Z,100.00
2023-04-19T12:56:37.213Z,100.00
2023-04-19T12:59:24.351Z,100.00
2023-04-19T13:02:12.039Z,100.00
2023-04-19T13:05:00.817Z,100.00
2023-04-19T13:07:48.536Z,100.00
2023-04-19T13:10:35.813Z,100.00
2023-04-19T13:13:23.979Z,100.00
2023-04-19T13:16:11.529Z,100.00
2023-04-19T13:18:58.932Z,100.00
2023-04-19T13:21:47.907Z,100.00
2023-04-19T13:24:35.111Z,100.00
2023-04-19T13:27:22.683Z,100.00
2023-04-19T13:30:11.233Z,100.00
2023-04-19T13:32:58.426Z,100.00
2023-04-19T13:35:46.515Z,100.00
2023-04-19T13:38:35.119Z,100.00
2023-04-19T13:41:22.980Z,100.00
2023-04-19T13:44:10.112Z,100.00
2023-04-19T13:46:57.933Z,100.00
2023-04-19T13:49:45.738Z,100.00
2023-04-19T13:52:33.774Z,100.00
2023-04-19T13:55:22.457Z,100.00
2023-04-19T13:58:10.528Z,100.00
2023-04-19T14:00:57.811Z,100.00
2023-04-19T14:03:45.815Z,100.00
2023-04-19T14:06:33.316Z,100.00
2023-04-19T14:09:21.369Z,100.00
2023-04-19T14:12:10.406Z,100.00
2023-04-19T14:14:58.066Z,100.00
2023-04-19T14:17:45.300Z,100.00
2023-04-19T14:20:33.525Z,100.00
2023-04-19T14:23:20.655Z,100.00
2023-04-19T14:26:08.288Z,100.00
2023-04-19T14:28:56.743Z,100.00
2023-04-19T14:31:44.313Z,100.00
2023-04-19T14:34:32.518Z,100.00
2023-04-19T14:37:21.325Z,100.00
2023-04-19T14:40:10.716Z,100.00
2023-04-19T14:42:58.715Z,100.00
2023-04-19T14:45:49.930Z,100.00
2023-04-19T14:48:37.702Z,100.00
2023-04-19T14:51:24.907Z,100.00
2023-04-19T14:54:12.945Z,100.00
2023-04-19T14:57:00.929Z,100.00
2023-04-19T14:59:48.528Z,100.00
2023-04-19T15:02:37.668Z,100.00
2023-04-19T15:05:27.820Z,100.00
2023-04-19T15:08:29.140Z,100.00
2023-04-19T15:11:17.660Z,100.00
2023-04-19T15:14:05.709Z,100.00
2023-04-19T15:16:53.309Z,100.00
2023-04-19T15:19:41.798Z,100.00
2023-04-19T15:22:29.498Z,100.00
2023-04-19T15:25:16.765Z,100.00
2023-04-19T15:28:04.400Z,100.00
2023-04-19T15:30:58.378Z,100.00
2023-04-19T15:33:46.820Z,100.00
2023-04-19T15:36:35.555Z,100.00
2023-04-19T15:39:23.269Z,100.00
2023-04-19T15:42:10.599Z,100.00
2023-04-19T15:44:58.175Z,100.00
2023-04-19T15:47:45.390Z,100.00
2023-04-19T15:50:33.386Z,100.00
2023-04-19T15:53:21.882Z,100.00
2023-04-19T15:56:09.208Z,100.00
2023-04-19T15:58:56.448Z,100.00
2023-04-19T16:01:44.518Z,100.00
2023-04-19T16:04:32.439Z,100.00
2023-04-19T16:07:19.549Z,100.00
2023-04-19T16:10:09.707Z,100.00
2023-04-19T16:12:57.004Z,100.00
2023-04-19T16:15:45.529Z,100.00
2023-04-19T16:18:33.141Z,100.00
2023-04-19T16:21:20.399Z,100.00
2023-04-19T16:24:08.233Z,100.00
2023-04-19T16:26:57.769Z,100.00
2023-04-19T16:29:45.539Z,100.00
2023-04-19T16:32:32.861Z,100.00
2023-04-19T16:35:20.760Z,100.00
2023-04-19T16:38:07.918Z,100.00
2023-04-19T16:40:56.258Z,100.00
2023-04-19T16:43:45.150Z,100.00
2023-04-19T16:46:33.323Z,100.00
2023-04-19T16:49:22.071Z,100.00
2023-04-19T16:52:10.125Z,100.00
2023-04-19T16:54:57.229Z,100.00
2023-04-19T16:57:45.281Z,100.00
2023-04-19T17:00:33.885Z,100.00
2023-04-19T17:03:22.363Z,99.70
2023-04-19T17:06:09.531Z,100.00
2023-04-19T17:08:57.525Z,99.60
2023-04-19T17:11:44.655Z,100.00
2023-04-19T17:14:34.956Z,100.00
2023-04-19T17:17:24.483Z,100.00
2023-04-19T17:20:13.896Z,100.00
2023-04-19T17:23:01.571Z,100.00
2023-04-19T17:25:48.682Z,100.00
2023-04-19T17:28:37.200Z,99.20
2023-04-19T17:31:24.857Z,99.80
2023-04-19T17:34:13.376Z,100.00
2023-04-19T17:37:01.359Z,100.00
2023-04-19T17:39:49.024Z,100.00
2023-04-19T17:42:36.216Z,100.00
2023-04-19T17:45:24.972Z,100.00
2023-04-19T17:48:12.105Z,100.00
2023-04-19T17:51:01.467Z,100.00
2023-04-19T17:53:48.644Z,100.00
2023-04-19T17:56:36.712Z,100.00
2023-04-19T17:59:23.876Z,100.00
2023-04-19T18:02:11.134Z,100.00
2023-04-19T18:04:58.293Z,99.40
2023-04-19T18:07:47.660Z,100.00
2023-04-19T18:10:35.129Z,99.60
2023-04-19T18:13:23.208Z,100.00
2023-04-19T18:16:11.336Z,99.50
2023-04-19T18:18:58.484Z,100.00
2023-04-19T18:21:46.187Z,100.00
2023-04-19T18:24:34.732Z,100.00
2023-04-19T18:27:21.900Z,100.00
2023-04-19T18:30:09.888Z,100.00
2023-04-19T18:32:58.730Z,100.00
2023-04-19T18:35:47.042Z,100.00
2023-04-19T18:38:34.294Z,100.00
2023-04-19T18:41:23.369Z,100.00
2023-04-19T18:44:29.993Z,100.00
2023-04-19T18:47:18.961Z,99.80
2023-04-19T18:50:08.466Z,100.00
2023-04-19T18:52:56.676Z,100.00
2023-04-19T18:55:43.960Z,100.00
2023-04-19T18:58:33.190Z,100.00
2023-04-19T19:01:21.063Z,100.00
2023-04-19T19:04:31.771Z,100.00
2023-04-19T19:07:34.357Z,100.00
2023-04-19T19:13:13.726Z,100.00
2023-04-19T19:16:02.363Z,100.00
2023-04-19T19:18:49.667Z,100.00
2023-04-19T19:21:37.721Z,100.00
2023-04-19T19:24:25.407Z,100.00
2023-04-19T19:27:13.164Z,100.00
2023-04-19T19:30:00.711Z,100.00
2023-04-19T19:32:50.066Z,100.00
2023-04-19T19:35:39.550Z,100.00
2023-04-19T19:38:28.041Z,100.00
2023-04-19T19:44:06.671Z,100.00
2023-04-19T19:46:53.897Z,100.00
2023-04-19T19:52:34.593Z,100.00
2023-04-19T19:55:22.034Z,100.00
2023-04-19T19:58:39.368Z,100.00
2023-04-19T20:01:21.851Z,100.00
2023-04-19T20:04:09.738Z,100.00
2023-04-19T20:09:51.551Z,100.00
2023-04-19T20:12:42.346Z,100.00
2023-04-19T20:15:31.040Z,100.00
2023-04-19T20:18:18.206Z,100.00
2023-04-19T20:21:05.741Z,100.00
2023-04-19T20:23:54.393Z,100.00
2023-04-19T20:26:42.114Z,100.00
2023-04-19T20:29:29.299Z,100.00
2023-04-19T20:32:17.404Z,100.00
2023-04-19T20:35:10.388Z,100.00
2023-04-19T20:38:02.625Z,100.00
2023-04-19T20:40:52.247Z,100.00
2023-04-19T20:43:39.872Z,100.00
2023-04-19T20:46:28.139Z,100.00
2023-04-19T20:49:16.880Z,100.00
2023-04-19T20:52:06.412Z,100.00
2023-04-19T20:54:54.629Z,100.00
2023-04-19T20:57:43.126Z,100.00
2023-04-19T21:00:31.062Z,100.00
2023-04-19T21:03:18.468Z,100.00
2023-04-19T21:06:06.656Z,100.00
2023-04-19T21:08:54.260Z,100.00
2023-04-19T21:11:41.876Z,100.00
2023-04-19T21:14:33.238Z,100.00
2023-04-19T21:17:20.936Z,100.00
2023-04-19T21:20:13.884Z,100.00
2023-04-19T21:23:01.976Z,100.00
2023-04-19T21:25:50.038Z,100.00
2023-04-19T21:28:37.660Z,100.00
2023-04-19T21:31:26.351Z,100.00
2023-04-19T21:34:14.485Z,100.00
2023-04-19T21:37:01.732Z,100.00
2023-04-19T21:39:49.405Z,100.00
2023-04-19T21:42:37.468Z,100.00
2023-04-19T21:45:24.719Z,100.00
2023-04-19T21:48:13.659Z,100.00
2023-04-19T21:51:01.305Z,100.00
2023-04-19T21:53:49.407Z,100.00
2023-04-19T21:56:38.110Z,100.00
2023-04-19T21:59:26.246Z,100.00
2023-04-19T22:02:13.393Z,100.00
2023-04-19T22:05:03.274Z,100.00
2023-04-19T22:07:50.443Z,100.00
2023-04-19T22:10:39.725Z,100.00
2023-04-19T22:13:28.276Z,100.00
2023-04-19T22:16:16.414Z,100.00
2023-04-19T22:19:03.494Z,100.00
2023-04-19T22:21:53.755Z,100.00
2023-04-19T22:24:53.834Z,100.00
2023-04-19T22:27:45.792Z,100.00
2023-04-19T22:30:33.015Z,100.00
2023-04-19T22:33:21.116Z,100.00
2023-04-19T22:36:08.986Z,100.00
2023-04-19T22:38:58.393Z,100.00
2023-04-19T22:41:45.636Z,100.00
2023-04-19T22:44:33.652Z,100.00
2023-04-19T22:47:21.103Z,100.00
2023-04-19T22:50:09.987Z,100.00
2023-04-19T22:52:57.607Z,100.00
2023-04-19T22:55:46.426Z,100.00
2023-04-19T22:58:33.993Z,100.00
2023-04-19T23:01:21.667Z,100.00
2023-04-19T23:04:11.579Z,100.00
2023-04-19T23:06:59.387Z,100.00
2023-04-19T23:09:47.094Z,100.00
2023-04-19T23:12:37.587Z,100.00
2023-04-19T23:15:25.206Z,100.00
2023-04-19T23:18:13.306Z,100.00
2023-04-19T23:21:00.489Z,100.00
2023-04-19T23:23:50.315Z,100.00
2023-04-19T23:26:37.963Z,100.00
2023-04-19T23:29:26.722Z,100.00
2023-04-19T23:32:13.889Z,100.00
2023-04-19T23:35:01.751Z,100.00
2023-04-19T23:37:49.389Z,100.00
2023-04-19T23:40:36.751Z,100.00
2023-04-19T23:43:24.816Z,100.00
2023-04-19T23:46:13.927Z,100.00
2023-04-19T23:49:01.027Z,100.00
2023-04-19T23:51:50.633Z,100.00
2023-04-19T23:54:37.897Z,100.00
2023-04-19T23:57:25.611Z,100.00
